createdAt,value
2019-04-05T00:00:07.439Z,88.58
2019-04-05T00:02:36.095Z,88.52
2019-04-05T00:05:04.929Z,88.77
2019-04-05T00:07:33.728Z,88.74
2019-04-05T00:10:02.894Z,89.33
2019-04-05T00:12:31.634Z,89.98
2019-04-05T00:15:00.173Z,89.20
2019-04-05T00:17:28.761Z,89.52
2019-04-05T00:19:57.292Z,89.50
2019-04-05T00:22:25.836Z,89.88
2019-04-05T00:24:54.420Z,90.22
2019-04-05T00:27:22.976Z,90.67
2019-04-05T00:29:51.629Z,90.94
2019-04-05T00:32:20.416Z,91.13
2019-04-05T00:34:48.944Z,91.56
2019-04-05T00:37:17.513Z,91.71
2019-04-05T00:39:46.170Z,91.96
2019-04-05T00:42:14.747Z,92.11
2019-04-05T00:44:43.367Z,92.05
2019-04-05T00:47:12.228Z,91.98
2019-04-05T00:49:40.975Z,91.95
2019-04-05T00:52:09.619Z,91.79
2019-04-05T00:54:38.268Z,91.63
2019-04-05T00:57:07.010Z,91.07
2019-04-05T00:59:35.765Z,90.85
2019-04-05T01:02:04.518Z,90.88
2019-04-05T01:04:33.045Z,90.58
2019-04-05T01:07:01.789Z,91.01
2019-04-05T01:09:30.467Z,90.60
2019-04-05T01:11:59.101Z,90.80
2019-04-05T01:14:28.032Z,91.04
2019-04-05T01:16:56.924Z,90.74
2019-04-05T01:19:29.505Z,89.30
2019-04-05T01:22:01.867Z,89.53
2019-04-05T01:24:30.602Z,89.75
2019-04-05T01:26:59.593Z,89.51
2019-04-05T01:29:28.332Z,89.67
2019-04-05T01:31:57.078Z,89.57
2019-04-05T01:34:25.824Z,89.16
2019-04-05T01:36:54.980Z,88.94
2019-04-05T01:39:23.727Z,89.57
2019-04-05T01:41:52.897Z,89.69
2019-04-05T01:44:21.523Z,90.14
2019-04-05T01:46:50.277Z,90.08
2019-04-05T01:49:19.105Z,89.83
2019-04-05T01:51:48.144Z,90.11
2019-04-05T01:54:16.880Z,90.29
2019-04-05T01:56:45.664Z,90.20
2019-04-05T01:59:14.215Z,90.46
2019-04-05T02:01:42.970Z,90.58
2019-04-05T02:04:11.674Z,90.61
2019-04-05T02:06:40.498Z,91.07
2019-04-05T02:09:10.427Z,90.73
2019-04-05T02:11:39.180Z,90.29
2019-04-05T02:14:08.029Z,90.20
2019-04-05T02:16:36.778Z,90.08
2019-04-05T02:19:05.761Z,90.53
2019-04-05T02:21:34.481Z,90.76
2019-04-05T02:24:03.660Z,90.11
2019-04-05T02:26:32.613Z,90.21
2019-04-05T02:29:01.386Z,89.75
2019-04-05T02:31:30.096Z,89.79
2019-04-05T02:33:58.874Z,90.09
2019-04-05T02:36:27.627Z,89.92
2019-04-05T02:38:56.385Z,90.39
2019-04-05T02:41:26.448Z,90.46
2019-04-05T02:43:57.285Z,90.41
2019-04-05T02:46:29.236Z,90.63
2019-04-05T02:49:00.995Z,90.85
2019-04-05T02:51:31.580Z,90.69
2019-04-05T02:54:01.736Z,90.98
2019-04-05T02:56:32.085Z,90.90
2019-04-05T02:59:02.027Z,90.37
2019-04-05T03:01:32.011Z,90.45
2019-04-05T03:04:01.662Z,90.54
2019-04-05T03:06:31.090Z,90.16
2019-04-05T03:09:00.759Z,90.16
2019-04-05T03:11:31.803Z,89.87
2019-04-05T03:14:02.551Z,89.92
2019-04-05T03:16:40.759Z,90.27
2019-04-05T03:19:12.150Z,90.44
2019-04-05T03:21:45.123Z,90.35
2019-04-05T03:24:17.472Z,90.36
2019-04-05T03:26:52.335Z,90.74
2019-04-05T03:29:21.394Z,90.67
2019-04-05T03:31:50.933Z,90.53
2019-04-05T03:34:20.889Z,90.44
2019-04-05T03:36:51.839Z,90.22
2019-04-05T03:39:22.262Z,90.68
2019-04-05T03:41:52.057Z,90.43
2019-04-05T03:44:23.090Z,90.50
2019-04-05T03:46:56.831Z,90.61
2019-04-05T03:49:23.577Z,91.00
2019-04-05T03:51:52.679Z,90.77
2019-04-05T03:54:21.934Z,90.97
2019-04-05T03:56:50.884Z,91.09
2019-04-05T03:59:19.923Z,91.61
2019-04-05T04:01:48.674Z,90.98
2019-04-05T04:04:17.545Z,90.82
2019-04-05T04:06:46.297Z,91.06
2019-04-05T04:09:15.057Z,91.03
2019-04-05T04:11:43.798Z,91.11
2019-04-05T04:14:12.952Z,91.25
2019-04-05T04:16:41.842Z,91.18
2019-04-05T04:19:11.278Z,91.22
2019-04-05T04:21:47.737Z,91.18
2019-04-05T04:24:17.952Z,91.37
2019-04-05T04:26:46.670Z,91.16
2019-04-05T04:29:15.551Z,90.82
2019-04-05T04:31:44.504Z,90.69
2019-04-05T04:34:13.491Z,90.62
2019-04-05T04:36:42.326Z,90.84
2019-04-05T04:39:11.595Z,90.90
2019-04-05T04:41:40.363Z,90.72
2019-04-05T04:44:09.102Z,90.46
2019-04-05T04:46:38.777Z,89.95
2019-04-05T04:49:07.716Z,89.25
2019-04-05T04:51:36.951Z,89.13
2019-04-05T04:54:05.927Z,88.92
2019-04-05T04:56:34.663Z,89.18
2019-04-05T04:59:03.519Z,89.71
2019-04-05T05:01:32.465Z,90.20
2019-04-05T05:04:01.543Z,90.26
2019-04-05T05:06:30.616Z,90.53
2019-04-05T05:08:59.639Z,90.74
2019-04-05T05:11:28.370Z,90.63
2019-04-05T05:13:57.254Z,90.81
2019-04-05T05:16:26.080Z,90.95
2019-04-05T05:18:55.022Z,90.88
2019-04-05T05:21:24.568Z,90.46
2019-04-05T05:23:53.428Z,90.46
2019-04-05T05:26:22.175Z,89.93
2019-04-05T05:28:51.433Z,90.14
2019-04-05T05:31:20.388Z,90.16
2019-04-05T05:33:49.349Z,90.46
2019-04-05T05:36:18.719Z,90.63
2019-04-05T05:38:47.591Z,90.68
2019-04-05T05:41:16.337Z,90.69
2019-04-05T05:43:44.988Z,90.65
2019-04-05T05:46:13.756Z,90.83
2019-04-05T05:48:43.019Z,90.83
2019-04-05T05:51:12.795Z,90.93
2019-04-05T05:53:41.483Z,90.95
2019-04-05T05:56:10.071Z,91.07
2019-04-05T05:58:38.647Z,91.04
2019-04-05T06:01:07.248Z,91.20
2019-04-05T06:03:35.875Z,91.34
2019-04-05T06:06:04.980Z,91.03
2019-04-05T06:08:33.783Z,91.12
2019-04-05T06:11:02.432Z,91.15
2019-04-05T06:13:31.071Z,90.94
2019-04-05T06:15:59.783Z,90.80
2019-04-05T06:18:28.321Z,90.21
2019-04-05T06:20:56.966Z,89.98
2019-04-05T06:23:33.546Z,90.39
2019-04-05T06:25:56.717Z,90.41
2019-04-05T06:28:25.281Z,89.09
2019-04-05T06:30:54.207Z,88.92
2019-04-05T06:33:31.389Z,88.53
2019-04-05T06:35:53.453Z,88.30
2019-04-05T06:38:22.035Z,88.21
2019-04-05T06:40:50.765Z,87.31
2019-04-05T06:43:19.531Z,86.94
2019-04-05T06:45:48.559Z,87.55
2019-04-05T06:48:19.408Z,87.66
2019-04-05T06:50:47.950Z,88.19
2019-04-05T06:53:16.681Z,87.88
2019-04-05T06:55:45.343Z,88.13
2019-04-05T06:58:19.864Z,87.20
2019-04-05T07:00:56.431Z,86.55
2019-04-05T07:03:15.062Z,86.03
2019-04-05T07:05:43.707Z,87.20
2019-04-05T07:08:12.445Z,86.58
2019-04-05T07:10:41.277Z,87.05
2019-04-05T07:13:10.059Z,86.50
2019-04-05T07:15:38.643Z,85.62
2019-04-05T07:18:07.643Z,85.64
2019-04-05T07:20:36.187Z,85.71
2019-04-05T07:23:04.839Z,85.96
2019-04-05T07:25:33.764Z,85.80
2019-04-05T07:28:02.602Z,83.82
2019-04-05T07:30:32.603Z,81.68
2019-04-05T07:33:01.340Z,81.86
2019-04-05T07:35:33.827Z,82.53
2019-04-05T07:38:00.498Z,80.31
2019-04-05T07:40:29.299Z,79.40
2019-04-05T07:42:58.028Z,78.62
2019-04-05T07:45:27.995Z,77.61
2019-04-05T07:47:56.687Z,76.56
2019-04-05T07:50:25.520Z,75.02
2019-04-05T07:52:54.178Z,77.18
2019-04-05T07:55:22.844Z,78.34
2019-04-05T07:57:51.550Z,77.21
2019-04-05T08:00:42.763Z,75.51
2019-04-05T08:03:11.735Z,74.93
2019-04-05T08:05:40.432Z,73.99
2019-04-05T08:08:13.184Z,75.05
2019-04-05T08:10:43.883Z,74.67
2019-04-05T08:13:14.229Z,75.65
2019-04-05T08:15:42.917Z,76.79
2019-04-05T08:18:11.691Z,75.07
2019-04-05T08:20:40.382Z,73.43
2019-04-05T08:23:09.154Z,76.06
2019-04-05T08:25:40.975Z,74.55
2019-04-05T08:28:08.494Z,74.28
2019-04-05T08:30:37.072Z,72.56
2019-04-05T08:33:05.708Z,71.88
2019-04-05T08:35:34.279Z,73.64
2019-04-05T08:38:03.128Z,72.32
2019-04-05T08:40:31.677Z,70.43
2019-04-05T08:43:01.556Z,68.00
2019-04-05T08:45:30.208Z,69.37
2019-04-05T08:47:58.874Z,69.04
2019-04-05T08:50:27.501Z,69.81
2019-04-05T08:52:56.188Z,70.05
2019-04-05T08:55:24.953Z,69.91
2019-04-05T08:57:53.531Z,70.46
2019-04-05T09:00:22.327Z,72.06
2019-04-05T09:02:51.010Z,70.41
2019-04-05T09:05:19.756Z,69.75
2019-04-05T09:07:48.344Z,68.62
2019-04-05T09:10:17.009Z,68.67
2019-04-05T09:12:45.569Z,70.25
2019-04-05T09:15:14.252Z,71.00
2019-04-05T09:17:42.813Z,71.52
2019-04-05T09:20:12.041Z,69.90
2019-04-05T09:22:40.609Z,71.26
2019-04-05T09:25:09.467Z,69.51
2019-04-05T09:27:38.146Z,71.50
2019-04-05T09:30:07.522Z,69.45
2019-04-05T09:32:36.687Z,69.04
2019-04-05T09:35:05.593Z,70.17
2019-04-05T09:37:34.164Z,70.08
2019-04-05T09:40:03.921Z,71.78
2019-04-05T09:42:32.585Z,70.39
2019-04-05T09:45:01.363Z,69.29
2019-04-05T09:47:30.144Z,69.84
2019-04-05T09:49:58.691Z,71.13
2019-04-05T09:52:27.476Z,70.63
2019-04-05T09:54:56.077Z,69.00
2019-04-05T09:57:24.794Z,72.67
2019-04-05T09:59:53.557Z,70.55
2019-04-05T10:02:22.128Z,71.75
2019-04-05T10:04:50.852Z,72.00
2019-04-05T10:07:19.443Z,69.72
2019-04-05T10:09:50.310Z,71.26
2019-04-05T10:12:18.452Z,72.43
2019-04-05T10:14:46.989Z,70.18
2019-04-05T10:17:15.537Z,70.00
2019-04-05T10:19:49.857Z,72.47
2019-04-05T10:22:14.549Z,72.53
2019-04-05T10:24:43.389Z,72.54
2019-04-05T10:27:12.060Z,70.39
2019-04-05T10:29:40.637Z,69.01
2019-04-05T10:32:09.206Z,70.26
2019-04-05T10:34:37.759Z,68.79
2019-04-05T10:37:06.448Z,71.25
2019-04-05T10:39:34.989Z,71.32
2019-04-05T10:42:05.545Z,70.04
2019-04-05T10:44:34.114Z,70.41
2019-04-05T10:47:03.367Z,70.62
2019-04-05T10:49:32.105Z,71.01
2019-04-05T10:52:00.840Z,68.44
2019-04-05T10:54:29.809Z,71.04
2019-04-05T10:56:58.395Z,70.93
2019-04-05T10:59:27.098Z,70.00
2019-04-05T11:01:55.658Z,71.01
2019-04-05T11:04:24.342Z,71.24
2019-04-05T11:06:52.898Z,68.85
2019-04-05T11:09:21.572Z,70.51
2019-04-05T11:11:50.316Z,69.40
2019-04-05T11:14:18.952Z,70.30
2019-04-05T11:16:57.958Z,69.00
2019-04-05T11:19:18.153Z,70.51
2019-04-05T11:21:48.493Z,66.70
2019-04-05T11:24:17.452Z,65.09
2019-04-05T11:26:46.101Z,64.50
2019-04-05T11:29:14.887Z,63.43
2019-04-05T11:31:55.917Z,65.26
2019-04-05T11:34:14.420Z,67.07
2019-04-05T11:36:43.171Z,67.47
2019-04-05T11:39:11.740Z,68.96
2019-04-05T11:41:42.082Z,68.60
2019-04-05T11:44:11.038Z,69.97
2019-04-05T11:46:39.770Z,69.46
2019-04-05T11:49:08.425Z,67.36
2019-04-05T11:51:37.339Z,70.86
2019-04-05T11:54:05.991Z,68.16
2019-04-05T11:56:35.067Z,70.16
2019-04-05T11:59:06.252Z,70.96
2019-04-05T12:01:43.415Z,71.30
2019-04-05T12:04:12.233Z,71.97
2019-04-05T12:06:40.773Z,72.50
2019-04-05T12:09:09.491Z,72.09
2019-04-05T12:11:38.256Z,68.95
2019-04-05T12:14:06.904Z,69.56
2019-04-05T12:16:36.207Z,72.02
2019-04-05T12:19:05.486Z,71.87
2019-04-05T12:21:34.777Z,70.24
2019-04-05T12:24:04.244Z,72.46
2019-04-05T12:26:34.472Z,71.29
2019-04-05T12:29:03.599Z,69.93
2019-04-05T12:31:32.261Z,69.95
2019-04-05T12:34:00.969Z,71.64
2019-04-05T12:36:29.666Z,71.46
2019-04-05T12:38:58.239Z,72.87
2019-04-05T12:41:26.808Z,69.48
2019-04-05T12:43:55.461Z,70.21
2019-04-05T12:46:24.138Z,71.03
2019-04-05T12:48:52.726Z,72.24
2019-04-05T12:51:21.488Z,71.47
2019-04-05T12:53:50.290Z,70.87
2019-04-05T12:56:19.147Z,70.94
2019-04-05T12:58:48.003Z,70.36
2019-04-05T13:01:16.870Z,72.27
2019-04-05T13:03:46.062Z,71.90
2019-04-05T13:06:15.288Z,70.87
2019-04-05T13:08:43.914Z,71.03
2019-04-05T13:11:12.541Z,70.30
2019-04-05T13:13:41.056Z,71.32
2019-04-05T13:16:10.968Z,71.63
2019-04-05T13:18:39.714Z,71.77
2019-04-05T13:21:15.042Z,70.58
2019-04-05T13:23:39.032Z,70.39
2019-04-05T13:26:11.505Z,70.06
2019-04-05T13:28:38.719Z,71.14
2019-04-05T13:31:07.318Z,71.86
2019-04-05T13:33:35.962Z,72.94
2019-04-05T13:36:04.641Z,73.46
2019-04-05T13:38:33.283Z,74.01
2019-04-05T13:41:02.216Z,73.31
2019-04-05T13:43:31.882Z,72.39
2019-04-05T13:46:01.488Z,72.02
2019-04-05T13:48:30.463Z,72.29
2019-04-05T13:50:59.221Z,71.99
2019-04-05T13:53:27.789Z,72.52
2019-04-05T13:55:56.401Z,73.54
2019-04-05T13:58:24.935Z,73.77
2019-04-05T14:00:53.642Z,71.72
2019-04-05T14:03:22.185Z,72.41
2019-04-05T14:05:54.002Z,71.96
2019-04-05T14:08:21.655Z,72.26
2019-04-05T14:10:50.325Z,73.49
2019-04-05T14:13:19.580Z,73.88
2019-04-05T14:15:48.257Z,71.84
2019-04-05T14:18:16.780Z,73.87
2019-04-05T14:20:45.433Z,74.62
2019-04-05T14:23:13.986Z,75.39
2019-04-05T14:25:42.757Z,75.11
2019-04-05T14:28:11.859Z,75.00
2019-04-05T14:30:40.802Z,75.09
2019-04-05T14:33:09.544Z,75.42
2019-04-05T14:35:38.201Z,74.13
2019-04-05T14:38:06.740Z,75.43
2019-04-05T14:40:35.394Z,75.30
2019-04-05T14:43:04.140Z,74.53
2019-04-05T14:45:32.800Z,73.40
2019-04-05T14:48:01.495Z,73.16
2019-04-05T14:50:30.259Z,75.55
2019-04-05T14:53:01.203Z,76.88
2019-04-05T14:55:29.870Z,76.04
2019-04-05T14:57:59.125Z,77.09
2019-04-05T15:00:27.905Z,77.12
2019-04-05T15:02:56.475Z,77.88
2019-04-05T15:05:25.035Z,77.76
2019-04-05T15:07:54.968Z,76.35
2019-04-05T15:10:25.283Z,76.57
2019-04-05T15:12:54.382Z,77.21
2019-04-05T15:15:23.137Z,78.14
2019-04-05T15:17:51.932Z,79.03
2019-04-05T15:20:20.881Z,79.01
2019-04-05T15:22:49.434Z,79.29
2019-04-05T15:25:21.574Z,80.05
2019-04-05T15:27:51.259Z,78.70
2019-04-05T15:30:19.742Z,80.02
2019-04-05T15:32:51.193Z,80.40
2019-04-05T15:35:18.928Z,79.64
2019-04-05T15:37:47.517Z,80.96
2019-04-05T15:40:16.366Z,81.79
2019-04-05T15:42:44.912Z,81.91
2019-04-05T15:45:16.053Z,80.67
2019-04-05T15:47:44.472Z,80.82
2019-04-05T15:50:13.338Z,79.10
2019-04-05T15:52:44.409Z,80.75
2019-04-05T15:55:13.308Z,81.59
2019-04-05T15:57:42.011Z,80.45
2019-04-05T16:00:11.997Z,82.42
2019-04-05T16:02:42.922Z,82.62
2019-04-05T16:05:12.243Z,83.26
2019-04-05T16:07:40.979Z,82.31
2019-04-05T16:10:10.381Z,83.63
2019-04-05T16:12:39.147Z,83.69
2019-04-05T16:15:08.213Z,84.47
2019-04-05T16:17:37.185Z,84.37
2019-04-05T16:20:07.167Z,86.28
2019-04-05T16:22:36.099Z,85.89
2019-04-05T16:25:05.790Z,85.73
2019-04-05T16:27:34.364Z,85.75
2019-04-05T16:30:04.178Z,85.40
2019-04-05T16:32:33.096Z,84.90
2019-04-05T16:35:01.678Z,85.57
2019-04-05T16:37:30.225Z,85.90
2019-04-05T16:39:58.856Z,86.72
2019-04-05T16:42:27.633Z,87.43
2019-04-05T16:44:56.405Z,87.50
2019-04-05T16:47:25.163Z,88.30
2019-04-05T16:49:53.926Z,87.90
2019-04-05T16:52:22.519Z,88.06
2019-04-05T16:54:51.066Z,88.42
2019-04-05T16:57:19.769Z,87.86
2019-04-05T16:59:48.537Z,88.74
2019-04-05T17:02:17.217Z,87.47
2019-04-05T17:04:45.791Z,86.69
2019-04-05T17:07:14.344Z,86.42
2019-04-05T17:09:42.899Z,87.74
2019-04-05T17:12:11.582Z,87.39
2019-04-05T17:14:40.335Z,86.99
2019-04-05T17:17:09.007Z,86.96
2019-04-05T17:19:37.576Z,85.99
2019-04-05T17:22:06.218Z,86.32
2019-04-05T17:24:34.761Z,87.01
2019-04-05T17:27:03.690Z,86.99
2019-04-05T17:29:32.373Z,86.46
2019-04-05T17:32:01.039Z,86.92
2019-04-05T17:34:29.639Z,88.65
2019-04-05T17:36:58.303Z,87.51
2019-04-05T17:39:26.847Z,87.42
2019-04-05T17:41:55.527Z,86.48
2019-04-05T17:44:24.071Z,86.54
2019-04-05T17:46:52.629Z,85.63
2019-04-05T17:49:21.183Z,85.94
2019-04-05T17:51:49.828Z,86.66
2019-04-05T17:54:18.473Z,86.62
2019-04-05T17:56:47.290Z,86.92
2019-04-05T17:59:16.024Z,87.23
2019-04-05T18:01:44.788Z,87.26
2019-04-05T18:04:13.472Z,87.21
2019-04-05T18:06:42.014Z,86.00
2019-04-05T18:09:10.895Z,85.59
2019-04-05T18:11:39.681Z,85.02
2019-04-05T18:14:08.263Z,85.36
2019-04-05T18:16:36.819Z,85.50
2019-04-05T18:19:05.496Z,84.98
2019-04-05T18:21:34.038Z,85.68
2019-04-05T18:24:02.787Z,85.12
2019-04-05T18:26:31.457Z,85.91
2019-04-05T18:29:00.123Z,86.36
2019-04-05T18:31:29.462Z,86.57
2019-04-05T18:33:58.036Z,87.24
2019-04-05T18:36:26.675Z,87.02
2019-04-05T18:38:55.286Z,87.64
2019-04-05T18:41:24.068Z,87.67
2019-04-05T18:43:52.587Z,87.60
2019-04-05T18:46:21.233Z,88.48
2019-04-05T18:48:49.938Z,87.99
2019-04-05T18:51:18.471Z,88.00
2019-04-05T18:53:47.210Z,88.56
2019-04-05T18:56:15.767Z,89.01
2019-04-05T18:58:44.560Z,89.58
2019-04-05T19:01:13.225Z,89.80
2019-04-05T19:03:41.809Z,89.69
2019-04-05T19:06:10.447Z,89.17
2019-04-05T19:08:40.169Z,89.57
2019-04-05T19:11:08.879Z,90.06
2019-04-05T19:13:37.536Z,89.99
2019-04-05T19:16:06.366Z,89.86
2019-04-05T19:18:35.349Z,89.47
2019-04-05T19:21:04.256Z,89.53
2019-04-05T19:23:32.932Z,89.66
2019-04-05T19:26:01.625Z,89.98
2019-04-05T19:28:30.407Z,90.11
2019-04-05T19:48:35.278Z,89.70
2019-04-05T19:51:04.111Z,89.90
2019-04-05T19:53:32.766Z,89.88
2019-04-05T19:56:01.657Z,89.76
2019-04-05T19:58:30.224Z,89.63
2019-04-05T20:00:59.284Z,89.42
2019-04-05T20:03:28.068Z,89.43
2019-04-05T20:05:56.820Z,89.27
2019-04-05T20:08:25.487Z,89.05
2019-04-05T20:10:54.362Z,89.01
2019-04-05T20:13:23.103Z,89.53
2019-04-05T20:15:51.648Z,90.23
2019-04-05T20:18:20.337Z,90.20
2019-04-05T20:20:48.884Z,90.58
2019-04-05T20:23:17.539Z,90.45
2019-04-05T20:25:46.208Z,90.54
2019-04-05T20:28:14.748Z,90.63
2019-04-05T20:30:43.400Z,90.25
2019-04-05T20:33:11.978Z,90.19
2019-04-05T20:35:40.628Z,89.91
2019-04-05T20:38:09.299Z,90.15
2019-04-05T20:40:37.946Z,90.45
2019-04-05T20:43:06.615Z,90.08
2019-04-05T20:45:35.379Z,89.54
2019-04-05T20:48:04.065Z,89.72
2019-04-05T20:50:32.716Z,89.47
2019-04-05T20:53:01.410Z,89.59
2019-04-05T20:55:30.029Z,88.77
2019-04-05T20:57:58.670Z,88.85
2019-04-05T21:00:27.322Z,88.73
2019-04-05T21:02:55.910Z,88.82
2019-04-05T21:05:25.475Z,89.24
2019-04-05T21:07:54.541Z,89.53
2019-04-05T21:10:23.117Z,89.02
2019-04-05T21:12:51.651Z,88.59
2019-04-05T21:15:20.220Z,88.45
2019-04-05T21:17:49.204Z,88.69
2019-04-05T21:20:17.971Z,87.29
2019-04-05T21:22:46.504Z,86.71
2019-04-05T21:25:15.231Z,86.28
2019-04-05T21:27:43.775Z,86.95
2019-04-05T21:30:14.057Z,86.53
2019-04-05T21:32:42.756Z,87.01
2019-04-05T21:35:11.409Z,87.79
2019-04-05T21:37:39.947Z,88.05
2019-04-05T21:40:08.625Z,88.15
2019-04-05T21:42:37.272Z,88.18
2019-04-05T21:45:06.071Z,87.96
2019-04-05T21:47:34.795Z,87.73
2019-04-05T21:50:04.344Z,88.81
2019-04-05T21:52:32.882Z,88.34
2019-04-05T21:55:01.558Z,88.04
2019-04-05T21:57:30.108Z,87.81
2019-04-05T21:59:58.665Z,88.37
2019-04-05T22:02:27.447Z,87.06
2019-04-05T22:04:56.192Z,87.48
2019-04-05T22:07:24.840Z,87.99
2019-04-05T22:09:53.506Z,88.01
2019-04-05T22:12:22.036Z,88.48
2019-04-05T22:14:50.784Z,88.01
2019-04-05T22:17:19.464Z,87.58
2019-04-05T22:19:48.098Z,87.79
2019-04-05T22:22:16.649Z,88.30
2019-04-05T22:24:45.230Z,87.74
2019-04-05T22:27:13.794Z,88.07
2019-04-05T22:29:42.362Z,87.46
2019-04-05T22:32:11.660Z,88.08
2019-04-05T22:34:40.396Z,87.91
2019-04-05T22:37:08.965Z,87.95
2019-04-05T22:39:37.546Z,87.63
2019-04-05T22:42:06.095Z,87.79
2019-04-05T22:44:39.887Z,88.16
2019-04-05T22:47:05.119Z,88.09
2019-04-05T22:49:33.662Z,88.20
2019-04-05T22:52:02.295Z,87.99
2019-04-05T22:54:30.922Z,88.25
2019-04-05T22:56:59.469Z,89.02
2019-04-05T22:59:28.192Z,88.92
2019-04-05T23:01:56.829Z,88.90
2019-04-05T23:04:25.468Z,88.19
2019-04-05T23:06:54.049Z,88.06
2019-04-05T23:09:22.812Z,88.68
2019-04-05T23:11:51.458Z,88.25
2019-04-05T23:14:20.024Z,88.45
2019-04-05T23:16:48.799Z,87.91
2019-04-05T23:19:17.368Z,88.40
2019-04-05T23:21:45.913Z,88.00
2019-04-05T23:24:14.604Z,88.81
2019-04-05T23:26:43.138Z,88.17
2019-04-05T23:29:11.863Z,88.26
2019-04-05T23:31:40.435Z,88.13
2019-04-05T23:34:09.001Z,87.27
2019-04-05T23:36:37.653Z,86.76
2019-04-05T23:39:06.416Z,87.65
2019-04-05T23:41:35.066Z,88.08
2019-04-05T23:44:03.799Z,88.47
2019-04-05T23:46:32.394Z,88.48
2019-04-05T23:49:00.938Z,88.52
2019-04-05T23:51:29.516Z,89.12
2019-04-05T23:53:58.171Z,89.26
2019-04-05T23:56:26.827Z,88.94
2019-04-05T23:58:55.374Z,89.18
